createdAt,value
2023-05-10T00:00:05.860Z,75.00
2023-05-10T00:02:40.784Z,75.00
2023-05-10T00:05:08.777Z,75.20
2023-05-10T00:07:36.214Z,75.20
2023-05-10T00:10:05.730Z,75.20
2023-05-10T00:12:33.333Z,75.30
2023-05-10T00:15:00.415Z,75.40
2023-05-10T00:17:27.625Z,75.50
2023-05-10T00:20:01.803Z,75.60
2023-05-10T00:22:37.508Z,75.50
2023-05-10T00:25:05.039Z,75.40
2023-05-10T00:27:32.173Z,75.40
2023-05-10T00:29:59.420Z,75.30
2023-05-10T00:32:29.832Z,75.30
2023-05-10T00:34:57.101Z,75.50
2023-05-10T00:37:29.616Z,75.50
2023-05-10T00:39:57.589Z,75.50
2023-05-10T00:42:25.007Z,75.50
2023-05-10T00:44:54.829Z,75.50
2023-05-10T00:47:24.251Z,75.50
2023-05-10T00:49:51.896Z,75.40
2023-05-10T00:52:21.044Z,75.40
2023-05-10T00:54:49.959Z,75.40
2023-05-10T00:57:17.249Z,75.50
2023-05-10T00:59:44.906Z,75.60
2023-05-10T01:02:12.394Z,75.60
2023-05-10T01:04:39.864Z,75.50
2023-05-10T01:07:07.193Z,75.50
2023-05-10T01:09:34.816Z,75.40
2023-05-10T01:12:02.696Z,75.40
2023-05-10T01:14:31.458Z,75.50
2023-05-10T01:17:00.418Z,75.50
2023-05-10T01:19:31.929Z,75.60
2023-05-10T01:22:04.400Z,75.50
2023-05-10T01:24:50.248Z,75.50
2023-05-10T01:27:20.952Z,75.50
2023-05-10T01:30:13.630Z,75.50
2023-05-10T01:32:51.743Z,75.50
2023-05-10T01:35:33.104Z,75.60
2023-05-10T01:38:04.146Z,75.60
2023-05-10T01:40:44.098Z,75.60
2023-05-10T01:43:12.499Z,75.70
2023-05-10T01:45:48.622Z,75.90
2023-05-10T01:48:18.900Z,76.10
2023-05-10T01:50:47.535Z,76.10
2023-05-10T01:53:19.016Z,76.10
2023-05-10T01:55:48.629Z,76.30
2023-05-10T01:58:18.143Z,76.40
2023-05-10T02:00:49.728Z,76.40
2023-05-10T02:03:17.276Z,76.40
2023-05-10T02:05:46.622Z,76.50
2023-05-10T02:08:14.651Z,76.50
2023-05-10T02:10:42.315Z,76.50
2023-05-10T02:13:13.965Z,76.60
2023-05-10T02:15:42.967Z,76.70
2023-05-10T02:18:12.904Z,76.60
2023-05-10T02:20:40.919Z,76.50
2023-05-10T02:23:09.237Z,76.40
2023-05-10T02:25:38.108Z,76.40
2023-05-10T02:28:07.119Z,76.40
2023-05-10T02:30:37.045Z,76.30
2023-05-10T02:33:05.498Z,76.30
2023-05-10T02:35:36.135Z,76.30
2023-05-10T02:38:05.299Z,76.50
2023-05-10T02:40:33.339Z,76.60
2023-05-10T02:43:02.468Z,76.70
2023-05-10T02:45:33.305Z,77.20
2023-05-10T02:48:02.653Z,77.50
2023-05-10T02:50:31.264Z,78.20
2023-05-10T02:53:02.911Z,78.70
2023-05-10T02:55:33.682Z,79.70
2023-05-10T02:58:01.858Z,80.50
2023-05-10T03:00:29.190Z,81.50
2023-05-10T03:02:56.672Z,81.70
2023-05-10T03:05:27.586Z,81.60
2023-05-10T03:07:55.760Z,81.30
2023-05-10T03:10:27.713Z,81.20
2023-05-10T03:13:28.168Z,81.00
2023-05-10T03:15:58.932Z,81.00
2023-05-10T03:18:32.972Z,80.80
2023-05-10T03:21:05.186Z,80.70
2023-05-10T03:23:37.301Z,80.50
2023-05-10T03:26:07.001Z,80.30
2023-05-10T03:28:34.999Z,80.00
2023-05-10T03:31:05.529Z,79.90
2023-05-10T03:33:34.037Z,79.80
2023-05-10T03:36:01.645Z,79.70
2023-05-10T03:38:30.522Z,79.70
2023-05-10T03:40:58.023Z,79.60
2023-05-10T03:43:25.153Z,80.40
2023-05-10T03:45:55.105Z,79.40
2023-05-10T03:48:22.241Z,79.30
2023-05-10T03:50:51.865Z,79.30
2023-05-10T03:53:23.293Z,79.30
2023-05-10T03:55:55.357Z,79.40
2023-05-10T03:58:32.181Z,79.40
2023-05-10T04:00:59.364Z,79.20
2023-05-10T04:03:27.348Z,79.30
2023-05-10T04:06:04.708Z,79.20
2023-05-10T04:08:33.950Z,79.20
2023-05-10T04:11:11.470Z,79.10
2023-05-10T04:13:39.370Z,79.00
2023-05-10T04:16:07.048Z,79.00
2023-05-10T04:18:34.080Z,78.80
2023-05-10T04:21:00.943Z,78.80
2023-05-10T04:23:28.706Z,78.80
2023-05-10T04:26:02.074Z,79.00
2023-05-10T04:28:29.133Z,78.90
2023-05-10T04:31:09.896Z,78.80
2023-05-10T04:33:37.571Z,78.70
2023-05-10T04:36:04.633Z,78.80
2023-05-10T04:38:31.730Z,78.80
2023-05-10T04:41:08.799Z,78.90
2023-05-10T04:43:35.938Z,78.80
2023-05-10T04:46:03.355Z,78.90
2023-05-10T04:48:30.352Z,78.90
2023-05-10T04:50:57.562Z,78.80
2023-05-10T04:53:24.545Z,78.90
2023-05-10T04:55:51.331Z,78.80
2023-05-10T04:58:18.078Z,78.80
2023-05-10T05:00:46.088Z,78.80
2023-05-10T05:03:14.224Z,78.80
2023-05-10T05:05:41.343Z,78.80
2023-05-10T05:08:08.391Z,78.70
2023-05-10T05:10:35.191Z,78.70
2023-05-10T05:13:02.215Z,78.70
2023-05-10T05:15:29.590Z,78.60
2023-05-10T05:17:56.553Z,78.60
2023-05-10T05:20:23.569Z,78.50
2023-05-10T05:22:50.504Z,78.40
2023-05-10T05:25:17.898Z,78.40
2023-05-10T05:27:45.039Z,78.50
2023-05-10T05:30:12.152Z,78.60
2023-05-10T05:32:39.171Z,78.60
2023-05-10T05:35:06.805Z,78.70
2023-05-10T05:37:33.770Z,78.80
2023-05-10T05:40:02.635Z,78.70
2023-05-10T05:42:29.666Z,78.60
2023-05-10T05:44:56.470Z,78.70
2023-05-10T05:47:23.859Z,78.60
2023-05-10T05:49:51.853Z,78.70
2023-05-10T05:52:19.154Z,78.70
2023-05-10T05:54:46.349Z,78.80
2023-05-10T05:57:16.508Z,78.80
2023-05-10T05:59:44.948Z,79.10
2023-05-10T06:02:13.018Z,79.20
2023-05-10T06:04:40.698Z,79.30
2023-05-10T06:07:08.432Z,79.30
2023-05-10T06:09:37.418Z,79.40
2023-05-10T06:12:04.396Z,79.50
2023-05-10T06:14:31.600Z,79.50
2023-05-10T06:16:58.373Z,79.40
2023-05-10T06:19:27.574Z,79.30
2023-05-10T06:21:54.286Z,79.30
2023-05-10T06:24:21.023Z,79.20
2023-05-10T06:26:47.898Z,79.20
2023-05-10T06:29:16.301Z,79.20
2023-05-10T06:31:43.225Z,79.40
2023-05-10T06:34:13.278Z,79.50
2023-05-10T06:36:41.111Z,79.60
2023-05-10T06:39:08.284Z,79.60
2023-05-10T06:41:35.154Z,79.70
2023-05-10T06:44:02.180Z,79.50
2023-05-10T06:46:29.205Z,79.60
2023-05-10T06:48:56.064Z,79.60
2023-05-10T06:51:22.835Z,79.70
2023-05-10T06:53:49.597Z,79.70
2023-05-10T06:56:17.635Z,79.70
2023-05-10T06:58:44.910Z,79.90
2023-05-10T07:01:11.994Z,79.60
2023-05-10T07:03:39.047Z,79.70
2023-05-10T07:06:06.215Z,79.70
2023-05-10T07:08:33.234Z,79.70
2023-05-10T07:11:01.146Z,79.70
2023-05-10T07:13:28.280Z,79.80
2023-05-10T07:15:55.335Z,79.70
2023-05-10T07:18:22.398Z,79.70
2023-05-10T07:20:49.352Z,79.60
2023-05-10T07:23:16.377Z,79.70
2023-05-10T07:25:49.269Z,79.90
2023-05-10T07:28:16.435Z,79.80
2023-05-10T07:30:43.698Z,80.00
2023-05-10T07:33:12.278Z,80.00
2023-05-10T07:35:40.389Z,80.10
2023-05-10T07:38:07.737Z,80.10
2023-05-10T07:40:35.060Z,80.40
2023-05-10T07:43:02.675Z,81.00
2023-05-10T07:45:32.246Z,81.40
2023-05-10T07:47:59.528Z,81.60
2023-05-10T07:50:27.943Z,81.80
2023-05-10T07:52:54.836Z,81.60
2023-05-10T07:55:22.365Z,81.70
2023-05-10T07:57:49.380Z,81.70
2023-05-10T08:00:18.173Z,81.60
2023-05-10T08:02:45.243Z,81.70
2023-05-10T08:05:12.237Z,81.60
2023-05-10T08:07:39.422Z,81.70
2023-05-10T08:10:06.847Z,82.00
2023-05-10T08:12:33.576Z,82.10
2023-05-10T08:15:00.355Z,82.40
2023-05-10T08:17:28.550Z,82.40
2023-05-10T08:19:55.539Z,82.40
2023-05-10T08:22:23.408Z,82.70
2023-05-10T08:24:50.575Z,82.90
2023-05-10T08:27:17.498Z,83.10
2023-05-10T08:29:50.177Z,83.20
2023-05-10T08:32:17.862Z,83.60
2023-05-10T08:34:44.759Z,83.50
2023-05-10T08:37:14.501Z,83.50
2023-05-10T08:39:41.855Z,83.70
2023-05-10T08:42:09.360Z,83.60
2023-05-10T08:44:37.455Z,83.70
2023-05-10T08:47:05.698Z,83.50
2023-05-10T08:49:33.810Z,83.80
2023-05-10T08:52:02.841Z,83.80
2023-05-10T08:54:31.014Z,83.60
2023-05-10T08:57:01.570Z,83.70
2023-05-10T08:59:28.655Z,83.90
2023-05-10T09:01:57.064Z,83.80
2023-05-10T09:04:24.116Z,83.80
2023-05-10T09:06:51.730Z,83.90
2023-05-10T09:09:19.333Z,84.00
2023-05-10T09:11:46.344Z,84.10
2023-05-10T09:14:13.525Z,84.20
2023-05-10T09:16:41.263Z,84.10
2023-05-10T09:19:09.603Z,84.20
2023-05-10T09:21:39.588Z,84.40
2023-05-10T09:24:07.351Z,84.40
2023-05-10T09:26:46.239Z,84.30
2023-05-10T09:29:15.208Z,84.40
2023-05-10T09:31:55.679Z,84.30
2023-05-10T09:34:30.504Z,84.30
2023-05-10T09:37:02.231Z,84.20
2023-05-10T09:39:36.550Z,84.30
2023-05-10T09:42:08.016Z,84.30
2023-05-10T09:44:34.868Z,84.60
2023-05-10T09:47:02.707Z,84.80
2023-05-10T09:49:29.581Z,84.60
2023-05-10T09:52:04.520Z,84.30
2023-05-10T09:54:31.470Z,84.20
2023-05-10T09:56:58.628Z,84.30
2023-05-10T09:59:29.032Z,84.60
2023-05-10T10:02:00.778Z,84.90
2023-05-10T10:04:28.277Z,84.80
2023-05-10T10:07:02.584Z,84.70
2023-05-10T10:09:29.972Z,84.80
2023-05-10T10:12:00.534Z,85.20
2023-05-10T10:14:27.303Z,85.40
2023-05-10T10:17:06.627Z,85.40
2023-05-10T10:19:36.788Z,85.40
2023-05-10T10:22:06.851Z,85.70
2023-05-10T10:24:34.073Z,85.70
2023-05-10T10:27:05.835Z,85.70
2023-05-10T10:29:51.171Z,86.10
2023-05-10T10:32:37.594Z,86.40
2023-05-10T10:35:05.484Z,86.60
2023-05-10T10:37:46.258Z,86.50
2023-05-10T10:40:34.825Z,86.10
2023-05-10T10:43:20.947Z,85.90
2023-05-10T10:46:08.021Z,85.90
2023-05-10T10:48:35.075Z,85.60
2023-05-10T10:51:02.250Z,85.60
2023-05-10T10:53:29.983Z,85.40
2023-05-10T10:56:24.746Z,85.20
2023-05-10T10:58:53.469Z,85.10
2023-05-10T11:01:20.681Z,85.20
2023-05-10T11:03:57.014Z,85.30
2023-05-10T11:06:33.386Z,85.50
2023-05-10T11:09:00.989Z,85.50
2023-05-10T11:11:27.974Z,85.80
2023-05-10T11:14:03.246Z,85.70
2023-05-10T11:16:41.175Z,85.70
2023-05-10T11:19:09.381Z,85.90
2023-05-10T11:21:49.076Z,85.80
2023-05-10T11:24:17.393Z,86.50
2023-05-10T11:26:44.665Z,85.40
2023-05-10T11:29:13.334Z,85.40
2023-05-10T11:31:45.273Z,85.20
2023-05-10T11:34:12.138Z,85.10
2023-05-10T11:36:39.230Z,85.10
2023-05-10T11:39:06.712Z,85.30
2023-05-10T11:41:34.129Z,85.80
2023-05-10T11:44:01.012Z,86.00
2023-05-10T11:46:28.651Z,86.40
2023-05-10T11:49:03.092Z,86.30
2023-05-10T11:51:30.194Z,86.60
2023-05-10T11:53:57.791Z,86.80
2023-05-10T11:56:25.761Z,87.20
2023-05-10T11:58:56.751Z,87.80
2023-05-10T12:01:24.370Z,87.80
2023-05-10T12:03:51.528Z,87.80
2023-05-10T12:06:18.788Z,88.10
2023-05-10T12:08:46.737Z,88.70
2023-05-10T12:11:16.710Z,88.80
2023-05-10T12:13:44.036Z,88.70
2023-05-10T12:16:21.542Z,88.10
2023-05-10T12:18:52.505Z,87.50
2023-05-10T12:21:19.760Z,87.40
2023-05-10T12:23:47.467Z,86.80
2023-05-10T12:26:14.249Z,86.60
2023-05-10T12:28:40.984Z,87.00
2023-05-10T12:31:07.863Z,87.10
2023-05-10T12:33:46.880Z,87.50
2023-05-10T12:36:15.295Z,87.60
2023-05-10T12:38:48.594Z,87.60
2023-05-10T12:41:18.972Z,87.60
2023-05-10T12:43:46.442Z,87.50
2023-05-10T12:46:16.553Z,87.40
2023-05-10T12:48:44.401Z,87.20
2023-05-10T12:51:19.934Z,86.90
2023-05-10T12:53:49.658Z,86.60
2023-05-10T12:56:16.464Z,86.40
2023-05-10T12:58:48.739Z,86.40
2023-05-10T13:01:16.003Z,87.30
2023-05-10T13:03:43.969Z,86.60
2023-05-10T13:06:10.610Z,85.50
2023-05-10T13:08:37.197Z,85.10
2023-05-10T13:11:04.079Z,83.60
2023-05-10T13:13:30.850Z,83.90
2023-05-10T13:15:57.536Z,84.00
2023-05-10T13:18:25.498Z,83.80
2023-05-10T13:20:52.346Z,82.80
2023-05-10T13:23:18.939Z,83.00
2023-05-10T13:25:45.611Z,83.40
2023-05-10T13:28:12.338Z,83.40
2023-05-10T13:30:38.999Z,83.20
2023-05-10T13:33:06.163Z,83.30
2023-05-10T13:35:32.909Z,83.50
2023-05-10T13:37:59.743Z,83.10
2023-05-10T13:40:26.428Z,83.20
2023-05-10T13:42:53.942Z,83.50
2023-05-10T13:45:20.769Z,83.60
2023-05-10T13:47:47.399Z,83.40
2023-05-10T13:50:14.113Z,83.50
2023-05-10T13:52:40.884Z,83.30
2023-05-10T13:55:07.923Z,82.80
2023-05-10T13:57:36.711Z,82.90
2023-05-10T14:00:03.666Z,82.80
2023-05-10T14:02:35.669Z,83.10
2023-05-10T14:05:02.456Z,82.90
2023-05-10T14:07:29.071Z,82.60
2023-05-10T14:09:55.723Z,82.70
2023-05-10T14:12:22.518Z,82.60
2023-05-10T14:14:49.193Z,82.40
2023-05-10T14:17:16.170Z,82.10
2023-05-10T14:19:43.014Z,82.60
2023-05-10T14:22:09.631Z,82.90
2023-05-10T14:24:38.619Z,82.80
2023-05-10T14:27:06.896Z,83.00
2023-05-10T14:29:33.836Z,83.00
2023-05-10T14:32:00.542Z,82.50
2023-05-10T14:34:27.334Z,82.60
2023-05-10T14:36:53.931Z,82.60
2023-05-10T14:39:20.625Z,82.50
2023-05-10T14:41:48.142Z,82.50
2023-05-10T14:44:16.244Z,82.50
2023-05-10T14:46:43.012Z,82.60
2023-05-10T14:49:09.888Z,82.40
2023-05-10T14:51:38.023Z,82.50
2023-05-10T14:54:04.765Z,82.60
2023-05-10T14:56:31.409Z,82.50
2023-05-10T14:58:58.231Z,82.40
2023-05-10T15:01:25.434Z,82.70
2023-05-10T15:03:52.862Z,81.30
2023-05-10T15:06:23.953Z,78.40
2023-05-10T15:08:50.638Z,77.00
2023-05-10T15:11:17.353Z,78.20
2023-05-10T15:13:44.050Z,78.30
2023-05-10T15:16:11.562Z,78.80
2023-05-10T15:18:38.299Z,79.10
2023-05-10T15:21:04.990Z,79.10
2023-05-10T15:23:31.805Z,78.90
2023-05-10T15:25:58.489Z,78.60
2023-05-10T15:28:25.282Z,78.50
2023-05-10T15:30:52.449Z,78.50
2023-05-10T15:33:19.219Z,78.40
2023-05-10T15:35:45.937Z,78.40
2023-05-10T15:38:12.599Z,75.50
2023-05-10T15:40:39.355Z,74.50
2023-05-10T15:43:08.950Z,75.00
2023-05-10T15:45:37.462Z,75.00
2023-05-10T15:48:04.836Z,74.50
2023-05-10T15:50:31.558Z,74.80
2023-05-10T15:52:58.282Z,74.80
2023-05-10T15:55:24.892Z,74.80
2023-05-10T15:57:51.645Z,74.90
2023-05-10T16:00:18.948Z,74.70
2023-05-10T16:02:45.736Z,74.60
2023-05-10T16:05:13.914Z,74.40
2023-05-10T16:07:42.006Z,74.10
2023-05-10T16:10:09.957Z,74.50
2023-05-10T16:12:39.081Z,74.70
2023-05-10T16:15:06.261Z,74.70
2023-05-10T16:17:33.072Z,74.40
2023-05-10T16:20:01.067Z,74.20
2023-05-10T16:22:28.875Z,74.50
2023-05-10T16:24:56.741Z,72.60
2023-05-10T16:27:23.622Z,72.80
2023-05-10T16:29:50.249Z,72.50
2023-05-10T16:32:17.134Z,71.80
2023-05-10T16:34:43.776Z,71.40
2023-05-10T16:37:11.285Z,71.60
2023-05-10T16:39:40.597Z,72.00
2023-05-10T16:42:07.387Z,72.30
2023-05-10T16:44:34.235Z,71.70
2023-05-10T16:47:01.103Z,72.60
2023-05-10T16:49:27.848Z,72.00
2023-05-10T16:51:54.790Z,72.00
2023-05-10T16:54:22.005Z,71.70
2023-05-10T16:56:48.728Z,71.60
2023-05-10T16:59:16.397Z,71.60
2023-05-10T17:01:43.249Z,71.10
2023-05-10T17:04:10.122Z,70.10
2023-05-10T17:06:37.479Z,69.20
2023-05-10T17:09:05.603Z,69.40
2023-05-10T17:11:33.829Z,68.90
2023-05-10T17:14:01.314Z,69.20
2023-05-10T17:16:29.106Z,69.90
2023-05-10T17:18:55.895Z,69.30
2023-05-10T17:21:22.723Z,69.10
2023-05-10T17:23:49.378Z,69.50
2023-05-10T17:26:16.954Z,69.80
2023-05-10T17:28:43.639Z,69.90
2023-05-10T17:31:10.472Z,70.40
2023-05-10T17:33:37.515Z,70.60
2023-05-10T17:36:04.364Z,70.60
2023-05-10T17:38:31.195Z,70.80
2023-05-10T17:40:57.828Z,71.10
2023-05-10T17:43:27.411Z,71.00
2023-05-10T17:45:54.196Z,70.90
2023-05-10T17:48:20.807Z,70.90
2023-05-10T17:50:49.310Z,70.60
2023-05-10T17:53:16.384Z,70.50
2023-05-10T17:55:43.707Z,70.80
2023-05-10T17:58:11.275Z,71.20
2023-05-10T18:00:38.222Z,71.50
2023-05-10T18:03:05.394Z,71.60
2023-05-10T18:05:35.723Z,71.60
2023-05-10T18:08:02.530Z,71.60
2023-05-10T18:10:29.207Z,71.60
2023-05-10T18:12:55.820Z,71.70
2023-05-10T18:15:22.922Z,71.90
2023-05-10T18:17:50.117Z,71.80
2023-05-10T18:20:16.965Z,71.70
2023-05-10T18:22:46.923Z,71.80
2023-05-10T18:25:13.671Z,71.90
2023-05-10T18:27:40.362Z,71.90
2023-05-10T18:30:10.106Z,72.10
2023-05-10T18:32:38.448Z,72.10
2023-05-10T18:35:06.821Z,72.00
2023-05-10T18:37:33.870Z,72.00
2023-05-10T18:40:00.863Z,72.00
2023-05-10T18:42:27.934Z,72.10
2023-05-10T18:44:54.659Z,72.40
2023-05-10T18:47:21.764Z,72.40
2023-05-10T18:49:48.422Z,72.40
2023-05-10T18:52:16.132Z,72.30
2023-05-10T18:54:43.549Z,72.30
2023-05-10T18:57:10.646Z,72.20
2023-05-10T18:59:37.273Z,72.20
2023-05-10T19:02:04.363Z,72.10
2023-05-10T19:04:31.074Z,72.20
2023-05-10T19:06:57.945Z,72.40
2023-05-10T19:09:26.089Z,72.70
2023-05-10T19:11:52.771Z,72.90
2023-05-10T19:14:19.949Z,72.90
2023-05-10T19:16:47.102Z,73.10
2023-05-10T19:19:13.960Z,73.50
2023-05-10T19:21:40.917Z,73.60
2023-05-10T19:24:07.825Z,73.50
2023-05-10T19:26:35.737Z,73.30
2023-05-10T19:29:02.439Z,73.10
2023-05-10T19:31:29.613Z,73.10
2023-05-10T19:33:57.995Z,72.90
2023-05-10T19:36:26.634Z,72.90
2023-05-10T19:38:53.905Z,72.90
2023-05-10T19:41:21.907Z,72.80
2023-05-10T19:43:48.559Z,72.90
2023-05-10T19:46:16.622Z,73.20
2023-05-10T19:48:46.834Z,73.40
2023-05-10T19:51:13.975Z,73.70
2023-05-10T19:53:44.181Z,73.80
2023-05-10T19:56:11.020Z,73.70
2023-05-10T19:58:37.663Z,73.70
2023-05-10T20:01:07.299Z,73.90
2023-05-10T20:03:34.447Z,73.90
2023-05-10T20:06:01.374Z,73.80
2023-05-10T20:08:28.399Z,73.70
2023-05-10T20:10:55.159Z,73.60
2023-05-10T20:13:21.852Z,73.50
2023-05-10T20:15:48.907Z,73.50
2023-05-10T20:18:15.544Z,73.40
2023-05-10T20:20:42.271Z,73.30
2023-05-10T20:23:09.446Z,73.40
2023-05-10T20:25:37.170Z,73.50
2023-05-10T20:28:03.827Z,73.70
2023-05-10T20:30:30.717Z,74.20
2023-05-10T20:32:57.989Z,74.60
2023-05-10T20:35:24.812Z,75.00
2023-05-10T20:37:51.565Z,75.10
2023-05-10T20:40:18.487Z,74.90
2023-05-10T20:42:45.907Z,74.60
2023-05-10T20:45:12.618Z,74.40
2023-05-10T20:47:39.447Z,74.30
2023-05-10T20:50:06.478Z,74.00
2023-05-10T20:52:33.154Z,73.90
2023-05-10T20:54:59.725Z,73.90
2023-05-10T20:57:26.500Z,73.80
2023-05-10T20:59:53.303Z,73.60
2023-05-10T21:02:20.071Z,73.60
2023-05-10T21:04:46.681Z,73.60
2023-05-10T21:07:13.388Z,73.60
2023-05-10T21:09:40.103Z,73.60
2023-05-10T21:12:07.855Z,73.60
2023-05-10T21:14:35.428Z,73.60
2023-05-10T21:17:02.071Z,73.60
2023-05-10T21:19:28.673Z,73.60
2023-05-10T21:21:57.022Z,73.60
2023-05-10T21:24:23.914Z,73.60
2023-05-10T21:26:50.589Z,73.50
2023-05-10T21:29:17.305Z,73.40
2023-05-10T21:31:44.018Z,73.30
2023-05-10T21:34:13.387Z,73.40
2023-05-10T21:36:40.039Z,73.50
2023-05-10T21:39:06.708Z,73.50
2023-05-10T21:41:33.334Z,73.50
2023-05-10T21:44:00.030Z,73.50
2023-05-10T21:46:26.901Z,73.50
2023-05-10T21:48:53.867Z,73.50
2023-05-10T21:51:21.734Z,73.50
2023-05-10T21:53:48.375Z,73.70
2023-05-10T21:56:15.025Z,73.60
2023-05-10T21:58:41.745Z,73.50
2023-05-10T22:01:08.572Z,73.50
2023-05-10T22:03:35.402Z,73.50
2023-05-10T22:06:02.110Z,73.50
2023-05-10T22:08:28.756Z,73.50
2023-05-10T22:10:55.511Z,73.50
2023-05-10T22:13:22.352Z,73.50
2023-05-10T22:15:49.304Z,73.40
2023-05-10T22:18:16.196Z,73.30
2023-05-10T22:20:46.403Z,73.30
2023-05-10T22:23:13.451Z,73.40
2023-05-10T22:25:40.255Z,73.50
2023-05-10T22:28:07.916Z,73.50
2023-05-10T22:30:34.952Z,73.50
2023-05-10T22:33:01.940Z,73.50
2023-05-10T22:35:28.697Z,73.40
2023-05-10T22:37:55.441Z,73.40
2023-05-10T22:40:22.192Z,73.40
2023-05-10T22:42:48.804Z,73.50
2023-05-10T22:45:15.421Z,73.60
2023-05-10T22:47:42.293Z,73.60
2023-05-10T22:50:09.301Z,73.60
2023-05-10T22:52:38.695Z,73.60
2023-05-10T22:55:06.261Z,73.80
2023-05-10T22:57:33.375Z,74.00
2023-05-10T23:00:00.085Z,74.00
2023-05-10T23:02:27.313Z,74.10
2023-05-10T23:04:54.055Z,74.10
2023-05-10T23:07:20.979Z,74.10
2023-05-10T23:09:48.688Z,74.10
2023-05-10T23:12:15.521Z,73.90
2023-05-10T23:14:42.249Z,74.00
2023-05-10T23:17:08.962Z,73.90
2023-05-10T23:19:35.597Z,74.80
2023-05-10T23:22:02.250Z,73.80
2023-05-10T23:24:29.170Z,73.80
2023-05-10T23:26:55.917Z,73.80
2023-05-10T23:29:23.868Z,73.70
2023-05-10T23:31:51.246Z,73.80
2023-05-10T23:34:18.130Z,74.00
2023-05-10T23:36:44.860Z,74.10
2023-05-10T23:39:11.977Z,74.40
2023-05-10T23:41:38.735Z,74.50
2023-05-10T23:44:05.498Z,74.60
2023-05-10T23:46:32.218Z,74.60
2023-05-10T23:48:58.943Z,74.60
2023-05-10T23:51:25.984Z,74.60
2023-05-10T23:53:52.704Z,74.60
2023-05-10T23:56:19.381Z,74.50
2023-05-10T23:58:46.342Z,74.40
